• Join FlightAware (Why Join?)
  • Login
  • US Flag 
06:02PM EDT


 

Airport Tracker/Info


-or-


 

Live Flight TrackerFlight Track Log ✈ N785JP ✈ 26-Jun-2013 ✈ KSYR - KSUS

Flight Track Log - Related Links

Times and Time Zones

All times are in EDT time to prevent confusion due to time zone crossing. See the N785JP flight status page for this flight to view local times or setup timezone preferences in your user account.

Time Position Orientation Groundspeed Altitude Reporting Facility
EDT Latitude Longitude Course Direction KTS MPH feet Rate Location/Type
07:19AM 43.0792 -76.1728 225° Southwest 138 159 2,400  Level Boston Center
07:20AM 43.0383 -76.2103 214° Southwest 157 181 3,700 1,140 Climbing Boston Center
07:21AM 43.0267 -76.2492 248° West 141 162 4,700 1,080 Climbing Boston Center
07:23AM 43.0581 -76.3489 293° West 150 173 6,900 1,080 Climbing Cleveland Center
07:24AM 43.0744 -76.4019 293° West 150 173 8,000 1,080 Climbing Cleveland Center
07:25AM 43.0661 -76.4564 258° West 143 165 9,100 960 Climbing Cleveland Center
07:26AM 43.0511 -76.5086 249° West 143 165 10,000 900 Climbing Cleveland Center
07:27AM 43.0342 -76.5608 246° West 154 177 10,900 900 Climbing Cleveland Center
07:28AM 43.0175 -76.6158 248° West 160 184 11,900 1,020 Climbing Cleveland Center
07:29AM 43.0006 -76.6681 246° West 155 178 13,000 1,140 Climbing Cleveland Center
07:30AM 42.9817 -76.7289 247° West 155 178 14,200 1,080 Climbing Cleveland Center
07:31AM 42.9647 -76.7811 246° West 155 178 15,200 900 Climbing Cleveland Center
07:32AM 42.9478 -76.8361 247° West 155 178 16,100 840 Climbing Cleveland Center
07:33AM 42.9286 -76.8911 245° Southwest 155 178 16,900 840 Climbing Cleveland Center
07:34AM 42.9114 -76.9431 246° West 155 178 17,800 840 Climbing Cleveland Center
07:35AM 42.8944 -76.9981 247° West 155 178 18,600 780 Climbing Cleveland Center
07:36AM 42.8794 -77.0497 248° West 155 178 19,400 660 Climbing Cleveland Center
07:37AM 42.8664 -77.1044 252° West 155 178 20,000 300 Climbing Cleveland Center
07:38AM 42.8517 -77.1675 252° West 163 188 20,000  Level Cleveland Center
07:39AM 42.8369 -77.2336 253° West 176 203 20,000  Level Cleveland Center
07:40AM 42.8181 -77.3081 251° West 193 222 20,000  Level Cleveland Center
07:41AM 42.8014 -77.3769 252° West 198 228 20,000  Level Cleveland Center
07:42AM 42.7844 -77.4486 252° West 198 228 20,000  Level Cleveland Center
07:43AM 42.7678 -77.5200 252° West 203 234 20,000  Level Cleveland Center
07:44AM 42.7508 -77.5944 253° West 208 239 20,000  Level Cleveland Center
07:45AM 42.7339 -77.6658 252° West 208 239 20,000  Level Cleveland Center
07:46AM 42.7169 -77.7403 253° West 208 239 20,000  Level Cleveland Center
07:47AM 42.6981 -77.8144 251° West 208 239 20,000  Level Cleveland Center
07:48AM 42.6808 -77.8858 252° West 208 239 20,000  Level Cleveland Center
07:49AM 42.6639 -77.9600 253° West 208 239 20,000  Level Cleveland Center
07:50AM 42.6339 -78.0233 237° Southwest 208 239 20,000  Level Cleveland Center
07:51AM 42.6019 -78.0867 236° Southwest 208 239 20,000  Level Cleveland Center
07:52AM 42.5678 -78.1444 231° Southwest 208 239 20,000  Level Cleveland Center
07:53AM 42.5336 -78.1994 230° Southwest 208 239 20,000  Level Cleveland Center
07:54AM 42.4972 -78.2572 230° Southwest 208 239 20,000  Level Cleveland Center
07:55AM 42.4608 -78.3147 229° Southwest 208 239 20,000  Level Cleveland Center
07:56AM 42.4244 -78.3750 231° Southwest 213 245 20,000  Level Cleveland Center
07:57AM 42.3967 -78.4436 241° Southwest 208 239 20,000  Level Cleveland Center
07:58AM 42.3814 -78.5172 254° West 203 234 20,000  Level Cleveland Center
07:59AM 42.3636 -78.5853 251° West 203 234 20,000  Level Cleveland Center
08:00AM 42.3483 -78.6586 254° West 203 234 20,000  Level Cleveland Center
08:01AM 42.3286 -78.7294 249° West 203 234 20,000  Level Cleveland Center
08:02AM 42.3131 -78.8031 254° West 203 234 20,000  Level Cleveland Center
08:03AM 42.2953 -78.8708 250° West 208 239 20,000  Level Cleveland Center
08:04AM 42.2736 -78.9500 250° West 208 239 20,000  Level Cleveland Center
08:05AM 42.2578 -79.0233 254° West 208 239 20,000  Level Cleveland Center
08:06AM 42.2403 -79.0994 253° West 208 239 20,000  Level Cleveland Center
08:07AM 42.2222 -79.1700 251° West 208 239 20,000  Level Cleveland Center
08:08AM 42.2044 -79.2378 251° West 208 239 20,000  Level Cleveland Center
08:09AM 42.1883 -79.3081 253° West 208 239 20,000  Level Cleveland Center
08:10AM 42.1683 -79.3814 250° West 208 239 20,000  Level Cleveland Center
08:11AM 42.1525 -79.4517 253° West 208 239 20,000  Level Cleveland Center
08:12AM 42.1344 -79.5247 252° West 208 239 20,000  Level Cleveland Center
08:13AM 42.1161 -79.5894 249° West 208 239 20,000  Level Cleveland Center
08:14AM 42.1000 -79.6625 253° West 208 239 20,000  Level Cleveland Center
08:15AM 42.0797 -79.7328 249° West 208 239 20,000  Level Cleveland Center
08:16AM 42.0636 -79.8056 253° West 208 239 20,000  Level Cleveland Center
08:17AM 42.0475 -79.8758 253° West 208 239 20,000  Level Cleveland Center
08:18AM 42.0292 -79.9458 251° West 208 239 20,000  Level Cleveland Center
08:19AM 42.0067 -80.0272 250° West 208 239 20,000  Level Cleveland Center
08:20AM 41.9903 -80.1000 253° West 208 239 20,000  Level Cleveland Center
08:21AM 41.9697 -80.1700 248° West 208 239 20,000  Level Cleveland Center
08:22AM 41.9511 -80.2425 251° West 203 234 20,000  Level Cleveland Center
08:23AM 41.9325 -80.3125 250° West 208 239 20,000  Level Cleveland Center
08:24AM 41.9139 -80.3850 251° West 208 239 20,000  Level Cleveland Center
08:25AM 41.8953 -80.4575 251° West 208 239 20,000  Level Cleveland Center
08:26AM 41.8767 -80.5331 252° West 208 239 20,000  Level Cleveland Center
08:27AM 41.8578 -80.6056 251° West 208 239 20,000  Level Cleveland Center
08:28AM 41.8411 -80.6722 251° West 208 239 20,000  Level Cleveland Center
08:29AM 41.8203 -80.7447 249° West 208 239 20,000  Level Cleveland Center
08:30AM 41.8014 -80.8172 251° West 208 239 20,000  Level Cleveland Center
08:31AM 41.7825 -80.8922 251° West 208 239 20,000  Level Cleveland Center
08:32AM 41.7614 -80.9672 249° West 208 239 20,000  Level Cleveland Center
08:33AM 41.7422 -81.0394 250° West 208 239 20,000  Level Cleveland Center
08:34AM 41.7233 -81.1117 251° West 208 239 20,000  Level Cleveland Center
08:35AM 41.7042 -81.1894 252° West 208 239 20,000  Level Cleveland Center
08:36AM 41.6828 -81.2642 249° West 208 239 20,000  Level Cleveland Center
08:37AM 41.6636 -81.3336 250° West 208 239 20,000  Level Cleveland Center
08:38AM 41.6444 -81.4083 251° West 208 239 20,000  Level Cleveland Center
08:39AM 41.6250 -81.4831 251° West 208 239 20,000  Level Cleveland Center
08:40AM 41.6056 -81.5522 249° West 208 239 20,000  Level Cleveland Center
08:41AM 41.5842 -81.6242 248° West 208 239 20,000  Level Cleveland Center
08:42AM 41.5647 -81.6961 250° West 208 239 20,000  Level Cleveland Center
08:43AM 41.5472 -81.7678 252° West 208 239 20,000  Level Cleveland Center
08:44AM 41.5258 -81.8422 249° West 208 239 20,000  Level Cleveland Center
08:45AM 41.5061 -81.9139 250° West 208 239 20,000  Level Cleveland Center
08:46AM 41.4864 -81.9858 250° West 208 239 20,000  Level Cleveland Center
08:47AM 41.4669 -82.0572 250° West 208 239 20,000  Level Cleveland Center
08:48AM 41.4450 -82.1289 248° West 208 239 20,000  Level Cleveland Center
08:49AM 41.4253 -82.2058 251° West 214 246 20,000  Level Cleveland Center
08:50AM 41.4075 -82.2692 249° West 214 246 20,000  Level Cleveland Center
08:51AM 41.3856 -82.3433 248° West 214 246 20,000  Level Cleveland Center
08:52AM 41.3658 -82.4175 251° West 209 241 20,000  Level Cleveland Center
08:53AM 41.3458 -82.4889 250° West 209 241 20,000  Level Cleveland Center
08:54AM 41.3258 -82.5600 249° West 209 241 20,000  Level Cleveland Center
08:55AM 41.3058 -82.6314 250° West 209 241 20,000  Level Cleveland Center
08:56AM 41.2836 -82.7053 248° West 209 241 20,000  Level Cleveland Center
08:57AM 41.2592 -82.7872 248° West 209 241 20,000  Level Cleveland Center
08:58AM 41.2389 -82.8611 250° West 209 241 20,000  Level Cleveland Center
08:59AM 41.2186 -82.9350 250° West 209 241 20,000  Level Cleveland Center
09:00AM 41.1961 -83.0089 248° West 209 241 20,000  Level Cleveland Center
09:01AM 41.1736 -83.0853 249° West 209 241 20,000  Level Cleveland Center
09:02AM 41.1533 -83.1589 250° West 215 247 20,000  Level Cleveland Center
09:03AM 41.1331 -83.2242 248° West 215 247 20,000  Level Cleveland Center
09:04AM 41.1106 -83.2978 248° West 215 247 20,000  Level Cleveland Center
09:05AM 41.0942 -83.3742 254° West 215 247 20,000  Level Cleveland Center
09:06AM 41.0761 -83.4297 247° West 215 247 20,000  Level Indianapolis Center
09:07AM 41.0500 -83.5167 248° West 216 249 20,000  Level Indianapolis Center
09:08AM 41.0311 -83.5817 249° West 213 245 20,000  Level Indianapolis Center
09:09AM 41.0094 -83.6547 249° West 212 244 20,000  Level Indianapolis Center
09:10AM 40.9833 -83.7406 248° West 213 245 20,000  Level Indianapolis Center
09:11AM 40.9606 -83.8128 247° West 211 243 20,000  Level Indianapolis Center
09:12AM 40.9289 -83.8817 239° Southwest 217 250 20,000  Level Indianapolis Center
09:13AM 40.8992 -83.9517 241° Southwest 216 249 20,000  Level Indianapolis Center
09:14AM 40.8686 -84.0206 240° Southwest 215 247 20,000  Level Indianapolis Center
09:15AM 40.8389 -84.0897 240° Southwest 214 246 20,000  Level Indianapolis Center
09:16AM 40.8094 -84.1583 240° Southwest 214 246 20,000  Level Indianapolis Center
09:17AM 40.7794 -84.2275 240° Southwest 216 249 20,000  Level Indianapolis Center
09:18AM 40.7503 -84.2964 241° Southwest 214 246 20,000  Level Indianapolis Center
09:19AM 40.7147 -84.3769 240° Southwest 214 246 20,000  Level Indianapolis Center
09:20AM 40.6842 -84.4453 239° Southwest 214 246 20,000  Level Indianapolis Center
09:21AM 40.6547 -84.5133 240° Southwest 213 245 20,000  Level Indianapolis Center
09:22AM 40.6256 -84.5808 240° Southwest 211 243 20,000  Level Indianapolis Center
09:24AM 40.5658 -84.7142 240° Southwest 208 239 20,000  Level Indianapolis Center
09:25AM 40.5361 -84.7825 240° Southwest 212 244 20,000  Level Indianapolis Center
09:26AM 40.5067 -84.8497 240° Southwest 212 244 20,000  Level Indianapolis Center
09:27AM 40.4725 -84.9264 240° Southwest 212 244 20,000  Level Indianapolis Center
09:28AM 40.4422 -84.9942 240° Southwest 214 246 20,000  Level Indianapolis Center
09:29AM 40.4128 -85.0589 239° Southwest 210 242 20,000  Level Indianapolis Center
09:30AM 40.3836 -85.1233 239° Southwest 205 236 20,000  Level Indianapolis Center
09:31AM 40.3553 -85.1869 240° Southwest 203 234 20,000  Level Indianapolis Center
09:32AM 40.3256 -85.2522 239° Southwest 208 239 20,000  Level Indianapolis Center
09:33AM 40.2911 -85.3289 240° Southwest 204 235 20,000  Level Indianapolis Center
09:35AM 40.2619 -85.3933 239° Southwest 206 237 20,000  Level Indianapolis Center
09:36AM 40.2333 -85.4578 240° Southwest 205 236 20,000  Level Indianapolis Center
09:37AM 40.2036 -85.5228 239° Southwest 207 238 20,000  Level Indianapolis Center
09:38AM 40.1742 -85.5875 239° Southwest 209 241 20,000  Level Indianapolis Center
09:39AM 40.1439 -85.6533 239° Southwest 211 243 20,000  Level Indianapolis Center
09:40AM 40.1139 -85.7197 239° Southwest 212 244 20,000  Level Indianapolis Center
09:41AM 40.0781 -85.7989 239° Southwest 212 244 20,000  Level Indianapolis Center
09:42AM 40.0472 -85.8647 239° Southwest 212 244 20,000  Level Indianapolis Center
09:43AM 40.0175 -85.9292 239° Southwest 209 241 20,000  Level Indianapolis Center
09:44AM 39.9886 -85.9931 239° Southwest 207 238 20,000  Level Indianapolis Center
09:45AM 39.9586 -86.0575 239° Southwest 208 239 20,000  Level Indianapolis Center
09:46AM 39.9292 -86.1225 239° Southwest 209 241 20,000  Level Indianapolis Center
09:47AM 39.8933 -86.2000 239° Southwest 210 242 20,000  Level Indianapolis Center
09:48AM 39.8636 -86.2647 239° Southwest 212 244 20,000  Level Indianapolis Center
09:49AM 39.8344 -86.3294 240° Southwest 212 244 20,000  Level Indianapolis Center
09:50AM 39.8100 -86.3967 245° Southwest 215 247 20,000  Level Indianapolis Center
09:51AM 39.7964 -86.4836 259° West 209 241 20,000  Level Indianapolis Center
09:52AM 39.7850 -86.5564 259° West 206 237 20,000  Level Indianapolis Center
09:53AM 39.7733 -86.6286 258° West 206 237 20,000  Level Indianapolis Center
09:54AM 39.7625 -86.7006 259° West 204 235 20,000  Level Indianapolis Center
09:55AM 39.7500 -86.7719 257° West 204 235 20,000  Level Indianapolis Center
09:56AM 39.7386 -86.8439 258° West 205 236 20,000  Level Indianapolis Center
09:57AM 39.7250 -86.9286 258° West 200 230 20,000  Level Indianapolis Center
09:58AM 39.7128 -86.9983 257° West 198 228 20,000  Level Indianapolis Center
09:59AM 39.7011 -87.0692 258° West 201 231 20,000  Level Indianapolis Center
10:00AM 39.6900 -87.1419 259° West 205 236 20,000  Level Indianapolis Center
10:01AM 39.6761 -87.2133 256° West 206 237 20,000  Level Indianapolis Center
10:02AM 39.6631 -87.3000 259° West 203 234 20,000  Level Indianapolis Center
10:03AM 39.6508 -87.3711 257° West 202 232 20,000  Level Indianapolis Center
10:04AM 39.6375 -87.4442 257° West 208 239 20,000  Level Indianapolis Center
10:06AM 39.6269 -87.5158 259° West 205 236 20,000  Level Indianapolis Center
10:07AM 39.6142 -87.5900 257° West 209 241 20,000  Level Indianapolis Center
10:08AM 39.6014 -87.6631 257° West 208 239 20,000  Level Indianapolis Center
10:09AM 39.5875 -87.7489 258° West 205 236 20,000  Level Indianapolis Center
10:10AM 39.5747 -87.8197 257° West 203 234 20,000  Level Indianapolis Center
10:11AM 39.5614 -87.8919 257° West 205 236 20,000  Level Indianapolis Center
10:12AM 39.5497 -87.9636 258° West 204 235 20,000  Level Indianapolis Center
10:13AM 39.5372 -88.0331 257° West 201 231 20,000  Level Indianapolis Center
10:14AM 39.5247 -88.1053 257° West 203 234 20,000  Level Indianapolis Center
10:15AM 39.4911 -88.1833 241° Southwest 221 254 20,000  Level Indianapolis Center
10:16AM 39.4747 -88.2539 253° West 211 243 20,000  Level Indianapolis Center
10:17AM 39.4656 -88.3272 261° West 207 238 20,000  Level Indianapolis Center
10:18AM 39.4544 -88.3961 258° West 207 238 20,000  Level Indianapolis Center
10:19AM 39.4392 -88.4831 257° West 206 237 20,000  Level Indianapolis Center
10:20AM 39.4269 -88.5550 258° West 206 237 20,000 -300 Level Indianapolis Center
10:21AM 39.4169 -88.6256 260° West 201 231 19,500 -780 Descending Indianapolis Center
10:22AM 39.4022 -88.7089 257° West 224 258 18,500 -1,080 Descending Indianapolis Center
10:23AM 39.3847 -88.8142 258° West 228 262 17,100 -900 Descending Kansas City Center
10:24AM 39.3714 -88.8942 258° West 229 264 16,500 -540 Descending Kansas City Center
10:25AM 39.3586 -88.9681 257° West 216 249 16,100 -420 Descending Kansas City Center
10:26AM 39.3467 -89.0411 258° West 211 243 15,700 -420 Descending Kansas City Center
10:27AM 39.3339 -89.1131 257° West 208 239 15,300 -480 Descending Kansas City Center
10:28AM 39.3217 -89.1847 258° West 205 236 14,800 -480 Descending Kansas City Center
10:30AM 39.3072 -89.2692 258° West 203 234 14,400 -420 Descending Kansas City Center
10:31AM 39.2947 -89.3433 258° West 209 241 14,000 -420 Descending Kansas City Center
10:32AM 39.2828 -89.4150 258° West 207 238 13,600 -420 Descending Kansas City Center
10:33AM 39.2689 -89.4892 256° West 211 243 13,200 -420 Descending Kansas City Center
10:34AM 39.2558 -89.5628 257° West 212 244 12,800 -600 Descending Kansas City Center
10:35AM 39.2406 -89.6522 258° West 213 245 12,000 -420 Descending Kansas City Center
10:36AM 39.2269 -89.7272 257° West 215 247 12,000 -300 Level Kansas City Center
10:37AM 39.1986 -89.7911 240° Southwest 218 251 11,400 -720 Descending Kansas City Center
10:38AM 39.1572 -89.8575 231° Southwest 218 251 10,600 -780 Descending Kansas City Center
10:39AM 39.1175 -89.9214 231° Southwest 214 246 9,900 -720 Descending Kansas City Center
10:40AM 39.0758 -89.9733 224° Southwest 212 244 9,200 -780 Descending Kansas City Center
10:41AM 39.0308 -90.0247 222° Southwest 211 243 8,300 -900 Descending Kansas City Center
10:42AM 38.9886 -90.0769 224° Southwest 211 243 7,400 -960 Descending Kansas City Center
10:43AM 38.9478 -90.1269 224° Southwest 206 237 6,400 -960 Descending Kansas City Center
10:44AM 38.9058 -90.1778 223° Southwest 206 237 5,500 -900 Descending Kansas City Center
10:45AM 38.8633 -90.2292 223° Southwest 208 239 4,600 -780 Descending Kansas City Center
10:46AM 38.8217 -90.2789 223° Southwest 208 239 4,000 -300 Descending Kansas City Center
10:47AM 38.7756 -90.3342 223° Southwest 198 228 4,000  Level Kansas City Center
10:48AM 38.7394 -90.3783 224° Southwest 190 219 4,000 -420 Level Kansas City Center
10:49AM 38.7089 -90.4225 228° Southwest 182 209 3,200 -780 Descending Kansas City Center
10:50AM 38.6858 -90.4758 241° Southwest 180 207 2,400 -600 Descending Kansas City Center
10:51AM 38.6761 -90.5486 260° West 178 205 2,000 -540 Descending Kansas City Center
10:52AM 38.6692 -90.5892 258° West 143 165 1,400 -660 Descending Kansas City Center
10:53AM 38.6628 -90.6281 258° West 124 143 700 -720 Descending Kansas City Center
10:55AM 38.6500 -90.6500 237° Southwest  Level FlightAware Approximate
11:02AM 38.6621 -90.6521 237° Southwest  Level Estimated